createdAt,value
2023-05-22T00:00:35.674Z,67.78
2023-05-22T00:03:24.441Z,67.56
2023-05-22T00:05:53.258Z,67.68
2023-05-22T00:08:21.209Z,67.96
2023-05-22T00:10:48.253Z,67.76
2023-05-22T00:13:15.894Z,67.66
2023-05-22T00:15:43.092Z,67.43
2023-05-22T00:18:13.511Z,67.22
2023-05-22T00:20:41.008Z,66.89
2023-05-22T00:23:13.885Z,67.01
2023-05-22T00:25:42.628Z,66.99
2023-05-22T00:28:11.785Z,67.10
2023-05-22T00:30:39.032Z,67.07
2023-05-22T00:33:06.549Z,67.11
2023-05-22T00:35:33.489Z,66.87
2023-05-22T00:38:04.024Z,66.77
2023-05-22T00:40:32.710Z,66.57
2023-05-22T00:43:00.305Z,66.51
2023-05-22T00:45:27.875Z,66.71
2023-05-22T00:47:55.111Z,66.81
2023-05-22T00:50:22.934Z,67.05
2023-05-22T00:52:50.612Z,67.16
2023-05-22T00:55:17.651Z,67.09
2023-05-22T00:57:46.434Z,67.09
2023-05-22T01:00:15.461Z,67.07
2023-05-22T01:05:25.664Z,66.69
2023-05-22T01:07:53.308Z,66.67
2023-05-22T01:10:20.946Z,66.74
2023-05-22T01:13:00.926Z,66.54
2023-05-22T01:15:39.665Z,66.74
2023-05-22T01:18:19.766Z,66.71
2023-05-22T01:20:53.171Z,66.72
2023-05-22T01:23:57.650Z,66.65
2023-05-22T01:27:03.972Z,66.86
2023-05-22T01:29:43.346Z,66.71
2023-05-22T01:32:14.580Z,66.75
2023-05-22T01:34:45.179Z,66.67
2023-05-22T01:37:13.440Z,66.47
2023-05-22T01:39:41.823Z,66.23
2023-05-22T01:42:08.971Z,66.03
2023-05-22T01:44:36.740Z,65.95
2023-05-22T01:47:05.794Z,65.84
2023-05-22T01:49:35.789Z,65.81
2023-05-22T01:52:12.255Z,65.66
2023-05-22T01:54:46.371Z,65.72
2023-05-22T01:57:18.895Z,65.83
2023-05-22T01:59:49.891Z,65.85
2023-05-22T02:02:20.030Z,65.63
2023-05-22T02:04:55.924Z,65.80
2023-05-22T02:07:25.050Z,65.92
2023-05-22T02:09:55.724Z,66.00
2023-05-22T02:12:23.431Z,66.15
2023-05-22T02:14:51.439Z,66.02
2023-05-22T02:17:18.788Z,65.99
2023-05-22T02:19:48.795Z,65.92
2023-05-22T02:22:20.287Z,65.86
2023-05-22T02:24:48.646Z,65.80
2023-05-22T02:27:16.868Z,65.90
2023-05-22T02:29:44.796Z,65.79
2023-05-22T02:32:11.756Z,65.90
2023-05-22T02:34:39.078Z,65.94
2023-05-22T02:37:06.284Z,65.87
2023-05-22T02:39:34.867Z,66.04
2023-05-22T02:42:01.976Z,66.11
2023-05-22T02:44:29.314Z,65.93
2023-05-22T02:46:56.447Z,66.12
2023-05-22T02:49:23.796Z,66.24
2023-05-22T02:51:50.939Z,66.19
2023-05-22T02:54:18.661Z,66.09
2023-05-22T02:56:47.136Z,66.18
2023-05-22T02:59:14.554Z,66.18
2023-05-22T03:01:41.450Z,66.20
2023-05-22T03:04:08.966Z,66.04
2023-05-22T03:06:37.226Z,66.13
2023-05-22T03:09:04.698Z,66.12
2023-05-22T03:11:34.502Z,66.00
2023-05-22T03:14:04.003Z,66.10
2023-05-22T03:16:31.066Z,65.91
2023-05-22T03:19:08.338Z,66.04
2023-05-22T03:21:35.855Z,66.08
2023-05-22T03:24:03.425Z,65.81
2023-05-22T03:26:30.491Z,65.76
2023-05-22T03:28:58.010Z,66.08
2023-05-22T03:31:28.881Z,66.22
2023-05-22T03:33:56.265Z,66.46
2023-05-22T03:36:23.458Z,66.58
2023-05-22T03:38:50.929Z,66.87
2023-05-22T03:41:18.345Z,67.07
2023-05-22T03:43:46.449Z,67.21
2023-05-22T03:46:16.623Z,67.15
2023-05-22T03:48:46.518Z,67.12
2023-05-22T03:51:13.780Z,67.33
2023-05-22T03:53:46.379Z,67.47
2023-05-22T03:56:13.512Z,67.33
2023-05-22T03:58:40.890Z,67.07
2023-05-22T04:01:10.118Z,67.02
2023-05-22T04:03:38.009Z,66.89
2023-05-22T04:06:07.582Z,66.92
2023-05-22T04:08:35.169Z,66.76
2023-05-22T04:11:03.154Z,66.32
2023-05-22T04:13:31.411Z,65.68
2023-05-22T04:15:58.510Z,65.26
2023-05-22T04:18:26.023Z,64.81
2023-05-22T04:20:53.120Z,63.98
2023-05-22T04:23:22.778Z,62.20
2023-05-22T04:25:50.417Z,61.72
2023-05-22T04:28:18.107Z,61.57
2023-05-22T04:30:45.645Z,60.00
2023-05-22T04:33:13.703Z,57.31
2023-05-22T04:35:40.955Z,54.90
2023-05-22T04:38:08.377Z,52.73
2023-05-22T04:40:38.335Z,51.54
2023-05-22T04:43:06.271Z,49.69
2023-05-22T04:45:33.375Z,46.50
2023-05-22T04:48:02.760Z,45.72
2023-05-22T04:50:32.898Z,44.32
2023-05-22T04:53:04.388Z,44.03
2023-05-22T04:55:34.016Z,42.22
2023-05-22T04:58:03.240Z,42.45
2023-05-22T05:00:30.298Z,40.82
2023-05-22T05:02:58.036Z,39.61
2023-05-22T05:05:25.030Z,38.77
2023-05-22T05:07:53.321Z,38.02
2023-05-22T05:10:21.421Z,36.42
2023-05-22T05:12:48.666Z,35.65
2023-05-22T05:15:17.337Z,36.07
2023-05-22T05:17:45.110Z,37.18
2023-05-22T05:20:14.593Z,37.69
2023-05-22T05:22:44.001Z,36.78
2023-05-22T05:25:11.840Z,35.69
2023-05-22T05:27:39.938Z,36.04
2023-05-22T05:30:08.682Z,36.27
2023-05-22T05:32:38.226Z,37.07
2023-05-22T05:35:05.768Z,39.64
2023-05-22T05:37:32.993Z,40.04
2023-05-22T05:40:00.181Z,40.22
2023-05-22T05:42:29.022Z,40.66
2023-05-22T05:44:56.222Z,41.16
2023-05-22T05:47:24.137Z,41.97
2023-05-22T05:49:52.729Z,42.81
2023-05-22T05:52:20.109Z,42.73
2023-05-22T05:54:48.157Z,43.07
2023-05-22T05:57:16.576Z,42.79
2023-05-22T05:59:43.684Z,43.11
2023-05-22T06:02:11.343Z,43.49
2023-05-22T06:04:38.352Z,43.30
2023-05-22T06:07:08.024Z,43.14
2023-05-22T06:09:36.355Z,43.70
2023-05-22T06:12:03.756Z,41.96
2023-05-22T06:14:31.093Z,42.62
2023-05-22T06:16:58.554Z,42.63
2023-05-22T06:19:32.183Z,42.26
2023-05-22T06:22:08.007Z,42.73
2023-05-22T06:24:35.160Z,41.87
2023-05-22T06:27:02.731Z,41.95
2023-05-22T06:29:31.053Z,42.80
2023-05-22T06:31:58.480Z,41.99
2023-05-22T06:34:25.908Z,41.99
2023-05-22T06:36:53.510Z,42.03
2023-05-22T06:39:22.070Z,41.67
2023-05-22T06:41:49.508Z,42.52
2023-05-22T06:44:17.201Z,41.94
2023-05-22T06:46:44.708Z,41.62
2023-05-22T06:49:11.923Z,42.30
2023-05-22T06:51:39.283Z,42.08
2023-05-22T06:54:07.717Z,41.85
2023-05-22T06:56:36.292Z,41.91
2023-05-22T06:59:06.135Z,41.65
2023-05-22T07:01:33.718Z,41.36
2023-05-22T07:04:02.043Z,41.41
2023-05-22T07:06:32.383Z,41.12
2023-05-22T07:08:59.967Z,40.45
2023-05-22T07:11:28.777Z,38.76
2023-05-22T07:13:57.046Z,39.56
2023-05-22T07:16:25.830Z,39.41
2023-05-22T07:18:53.222Z,39.19
2023-05-22T07:21:23.900Z,39.02
2023-05-22T07:23:51.528Z,38.94
2023-05-22T07:26:19.120Z,39.24
2023-05-22T07:28:46.337Z,38.72
2023-05-22T07:31:15.234Z,39.65
2023-05-22T07:33:42.547Z,38.25
2023-05-22T07:36:10.330Z,38.63
2023-05-22T07:38:37.293Z,39.46
2023-05-22T07:41:05.207Z,38.62
2023-05-22T07:43:32.325Z,38.82
2023-05-22T07:45:59.698Z,38.46
2023-05-22T07:48:28.236Z,38.64
2023-05-22T07:50:55.818Z,37.82
2023-05-22T07:53:23.261Z,37.70
2023-05-22T07:55:50.998Z,37.90
2023-05-22T07:58:18.042Z,38.39
2023-05-22T08:00:45.410Z,38.70
2023-05-22T08:03:13.613Z,38.90
2023-05-22T08:05:42.579Z,39.01
2023-05-22T08:08:12.010Z,39.63
2023-05-22T08:13:10.217Z,40.01
2023-05-22T08:15:37.665Z,40.05
2023-05-22T08:18:04.802Z,39.82
2023-05-22T08:20:32.522Z,40.00
2023-05-22T08:23:01.134Z,40.20
2023-05-22T08:25:28.637Z,39.80
2023-05-22T08:27:55.720Z,39.84
2023-05-22T08:30:23.043Z,39.94
2023-05-22T08:32:50.285Z,39.96
2023-05-22T08:35:18.109Z,40.02
2023-05-22T08:37:45.325Z,39.68
2023-05-22T08:40:15.314Z,41.06
2023-05-22T08:42:42.814Z,39.90
2023-05-22T08:45:11.019Z,40.45
2023-05-22T08:47:41.127Z,39.26
2023-05-22T08:50:10.115Z,39.61
2023-05-22T08:52:48.027Z,39.42
2023-05-22T08:55:19.516Z,39.17
2023-05-22T08:57:47.367Z,39.46
2023-05-22T09:00:16.149Z,38.66
2023-05-22T09:02:44.139Z,38.69
2023-05-22T09:05:12.382Z,38.63
2023-05-22T09:07:41.140Z,38.42
2023-05-22T09:10:08.999Z,38.39
2023-05-22T09:12:37.681Z,38.27
2023-05-22T09:15:10.180Z,37.58
2023-05-22T09:17:40.256Z,37.90
2023-05-22T09:20:10.341Z,37.16
2023-05-22T09:22:41.024Z,37.51
2023-05-22T09:25:09.638Z,37.06
2023-05-22T09:27:38.186Z,36.93
2023-05-22T09:30:09.299Z,37.30
2023-05-22T09:32:36.707Z,36.31
2023-05-22T09:35:07.093Z,36.47
2023-05-22T09:37:35.549Z,37.33
2023-05-22T09:40:06.023Z,36.89
2023-05-22T09:42:33.873Z,36.93
2023-05-22T09:45:07.327Z,36.49
2023-05-22T09:47:35.073Z,36.58
2023-05-22T09:50:08.610Z,35.97
2023-05-22T09:52:37.089Z,36.08
2023-05-22T09:55:06.967Z,36.27
2023-05-22T09:57:41.883Z,36.17
2023-05-22T10:00:14.294Z,36.26
2023-05-22T10:02:46.593Z,36.10
2023-05-22T10:05:22.200Z,35.73
2023-05-22T10:07:51.964Z,34.97
2023-05-22T10:10:22.958Z,35.24
2023-05-22T10:12:53.936Z,35.02
2023-05-22T10:15:23.026Z,34.82
2023-05-22T10:17:50.374Z,34.57
2023-05-22T10:20:17.589Z,35.47
2023-05-22T10:22:46.767Z,35.58
2023-05-22T10:25:14.444Z,35.94
2023-05-22T10:27:42.160Z,35.55
2023-05-22T10:30:27.286Z,35.73
2023-05-22T10:33:01.164Z,35.68
2023-05-22T10:35:37.710Z,36.09
2023-05-22T10:38:22.936Z,35.72
2023-05-22T10:40:51.177Z,36.16
2023-05-22T10:43:18.663Z,36.34
2023-05-22T10:45:48.424Z,36.25
2023-05-22T10:48:16.355Z,36.16
2023-05-22T10:50:54.555Z,35.85
2023-05-22T10:53:24.550Z,35.94
2023-05-22T10:55:53.602Z,35.23
2023-05-22T10:58:27.491Z,35.50
2023-05-22T11:01:17.281Z,35.94
2023-05-22T11:04:00.984Z,35.80
2023-05-22T11:06:33.111Z,34.86
2023-05-22T11:09:00.311Z,35.03
2023-05-22T11:11:28.235Z,35.27
2023-05-22T11:14:03.435Z,35.20
2023-05-22T11:16:33.729Z,34.88
2023-05-22T11:19:21.258Z,34.54
2023-05-22T11:21:52.221Z,34.31
2023-05-22T11:24:19.619Z,34.67
2023-05-22T11:27:01.330Z,35.02
2023-05-22T11:29:29.750Z,35.76
2023-05-22T11:32:00.198Z,35.80
2023-05-22T11:34:28.109Z,35.42
2023-05-22T11:36:58.674Z,35.15
2023-05-22T11:39:26.247Z,34.81
2023-05-22T11:41:53.841Z,34.36
2023-05-22T11:44:21.392Z,34.62
2023-05-22T11:46:48.882Z,33.83
2023-05-22T11:49:17.539Z,34.42
2023-05-22T11:51:45.415Z,33.95
2023-05-22T11:54:12.762Z,33.87
2023-05-22T11:56:40.170Z,33.71
2023-05-22T11:59:07.437Z,34.04
2023-05-22T12:01:36.460Z,34.01
2023-05-22T12:04:04.959Z,34.27
2023-05-22T12:06:34.198Z,33.60
2023-05-22T12:09:01.616Z,32.97
2023-05-22T12:11:29.005Z,32.49
2023-05-22T12:14:02.860Z,33.06
2023-05-22T12:16:38.941Z,32.97
2023-05-22T12:19:08.846Z,32.13
2023-05-22T12:21:39.288Z,31.48
2023-05-22T12:24:06.805Z,31.77
2023-05-22T12:26:34.889Z,30.69
2023-05-22T12:29:02.741Z,31.05
2023-05-22T12:31:35.944Z,31.27
2023-05-22T12:34:06.421Z,31.50
2023-05-22T12:36:35.046Z,30.86
2023-05-22T12:39:08.156Z,30.86
2023-05-22T12:41:35.532Z,30.46
2023-05-22T12:44:03.958Z,31.04
2023-05-22T12:46:31.669Z,31.47
2023-05-22T12:48:59.089Z,30.42
2023-05-22T12:51:29.577Z,31.75
2023-05-22T12:53:57.181Z,32.43
2023-05-22T12:56:25.987Z,32.54
2023-05-22T12:58:53.019Z,33.19
2023-05-22T13:01:21.701Z,32.88
2023-05-22T13:03:49.233Z,33.35
2023-05-22T13:06:16.789Z,33.55
2023-05-22T13:08:43.855Z,33.70
2023-05-22T13:11:11.953Z,33.86
2023-05-22T13:13:40.662Z,33.71
2023-05-22T13:16:10.234Z,33.86
2023-05-22T13:18:37.600Z,34.10
2023-05-22T13:21:06.299Z,34.91
2023-05-22T13:23:33.123Z,34.38
2023-05-22T13:26:02.234Z,35.15
2023-05-22T13:28:29.228Z,35.45
2023-05-22T13:30:57.994Z,35.52
2023-05-22T13:33:25.951Z,35.70
2023-05-22T13:35:53.483Z,35.92
2023-05-22T13:38:20.876Z,36.20
2023-05-22T13:40:48.773Z,36.38
2023-05-22T13:43:16.105Z,36.44
2023-05-22T13:45:43.594Z,36.62
2023-05-22T13:48:12.736Z,36.71
2023-05-22T13:50:40.494Z,36.00
2023-05-22T13:53:07.755Z,36.02
2023-05-22T13:55:35.016Z,35.31
2023-05-22T13:58:02.051Z,35.36
2023-05-22T14:00:29.395Z,35.85
2023-05-22T14:02:56.871Z,35.32
2023-05-22T14:05:25.860Z,35.55
2023-05-22T14:07:52.881Z,35.40
2023-05-22T14:10:20.412Z,35.56
2023-05-22T14:12:47.496Z,35.49
2023-05-22T14:15:16.203Z,35.79
2023-05-22T14:17:43.347Z,35.00
2023-05-22T14:20:11.679Z,34.40
2023-05-22T14:22:56.004Z,33.75
2023-05-22T14:25:24.963Z,33.39
2023-05-22T14:27:52.020Z,33.26
2023-05-22T14:30:19.559Z,33.15
2023-05-22T14:32:47.022Z,32.89
2023-05-22T14:35:16.688Z,32.99
2023-05-22T14:37:46.062Z,34.40
2023-05-22T14:40:13.385Z,36.43
2023-05-22T14:42:40.617Z,38.03
2023-05-22T14:45:16.038Z,39.20
2023-05-22T14:47:43.596Z,39.69
2023-05-22T14:50:19.946Z,39.73
2023-05-22T14:52:51.298Z,40.32
2023-05-22T14:55:21.915Z,40.72
2023-05-22T14:57:51.633Z,41.37
2023-05-22T15:00:21.047Z,42.31
2023-05-22T15:02:48.351Z,41.62
2023-05-22T15:05:15.974Z,42.74
2023-05-22T15:07:45.623Z,43.32
2023-05-22T15:10:15.535Z,44.00
2023-05-22T15:12:45.538Z,45.32
2023-05-22T15:15:14.111Z,46.47
2023-05-22T15:17:42.825Z,46.35
2023-05-22T15:20:12.126Z,45.89
2023-05-22T15:22:39.569Z,45.49
2023-05-22T15:25:09.049Z,44.37
2023-05-22T15:27:40.066Z,42.78
2023-05-22T15:30:09.869Z,42.38
2023-05-22T15:32:41.328Z,41.51
2023-05-22T15:35:14.177Z,41.08
2023-05-22T15:37:43.094Z,40.68
2023-05-22T15:40:12.509Z,40.06
2023-05-22T15:42:42.154Z,39.29
2023-05-22T15:45:14.528Z,39.12
2023-05-22T15:47:42.538Z,38.96
2023-05-22T15:50:10.208Z,38.95
2023-05-22T15:52:37.682Z,39.27
2023-05-22T15:55:05.917Z,39.56
2023-05-22T15:57:34.138Z,39.82
2023-05-22T16:00:02.900Z,39.52
2023-05-22T16:02:30.028Z,39.51
2023-05-22T16:04:57.702Z,39.86
2023-05-22T16:07:24.689Z,40.34
2023-05-22T16:09:52.242Z,40.82
2023-05-22T16:12:19.629Z,40.76
2023-05-22T16:14:47.324Z,40.59
2023-05-22T16:17:15.759Z,40.66
2023-05-22T16:19:43.358Z,40.42
2023-05-22T16:22:10.391Z,40.34
2023-05-22T16:24:37.690Z,40.94
2023-05-22T16:27:05.471Z,41.13
2023-05-22T16:29:32.965Z,40.76
2023-05-22T16:32:00.336Z,41.02
2023-05-22T16:34:31.794Z,41.29
2023-05-22T16:36:59.068Z,41.80
2023-05-22T16:39:26.935Z,41.93
2023-05-22T16:41:54.116Z,42.10
2023-05-22T16:44:21.562Z,41.68
2023-05-22T16:46:49.829Z,41.63
2023-05-22T16:49:17.220Z,41.26
2023-05-22T16:51:45.641Z,41.61
2023-05-22T16:54:13.263Z,41.73
2023-05-22T16:56:40.581Z,41.65
2023-05-22T16:59:08.049Z,41.54
2023-05-22T17:01:35.324Z,41.47
2023-05-22T17:04:02.500Z,41.33
2023-05-22T17:06:30.094Z,41.34
2023-05-22T17:08:58.871Z,41.37
2023-05-22T17:11:26.494Z,41.49
2023-05-22T17:13:54.085Z,41.68
2023-05-22T17:16:21.276Z,41.81
2023-05-22T17:18:48.665Z,42.10
2023-05-22T17:21:17.499Z,42.35
2023-05-22T17:23:44.766Z,42.83
2023-05-22T17:26:14.368Z,43.18
2023-05-22T17:28:42.275Z,43.21
2023-05-22T17:31:09.288Z,43.34
2023-05-22T17:33:36.758Z,43.11
2023-05-22T17:36:04.129Z,43.46
2023-05-22T17:38:31.558Z,43.13
2023-05-22T17:41:00.705Z,43.27
2023-05-22T17:43:29.644Z,43.48
2023-05-22T17:45:56.588Z,43.59
2023-05-22T17:48:27.358Z,44.02
2023-05-22T17:50:55.342Z,44.15
2023-05-22T17:53:22.960Z,44.44
2023-05-22T17:55:52.341Z,44.81
2023-05-22T17:58:20.922Z,45.02
2023-05-22T18:00:49.556Z,45.66
2023-05-22T18:03:20.476Z,45.75
2023-05-22T18:05:47.885Z,45.79
2023-05-22T18:08:15.392Z,45.96
2023-05-22T18:10:42.595Z,46.18
2023-05-22T18:13:10.676Z,46.23
2023-05-22T18:15:38.309Z,46.03
2023-05-22T18:18:07.711Z,46.05
2023-05-22T18:20:34.992Z,46.05
2023-05-22T18:23:02.228Z,46.55
2023-05-22T18:25:29.910Z,46.92
2023-05-22T18:27:57.247Z,46.83
2023-05-22T18:30:24.506Z,47.21
2023-05-22T18:32:52.721Z,47.08
2023-05-22T18:35:21.845Z,47.47
2023-05-22T18:37:51.484Z,47.71
2023-05-22T18:40:18.800Z,49.37
2023-05-22T18:42:46.182Z,49.66
2023-05-22T18:45:13.527Z,49.42
2023-05-22T18:47:41.339Z,49.82
2023-05-22T18:50:09.093Z,50.33
2023-05-22T18:52:38.162Z,50.67
2023-05-22T18:55:06.004Z,50.51
2023-05-22T18:57:33.321Z,50.97
2023-05-22T19:00:00.532Z,50.80
2023-05-22T19:02:27.849Z,51.12
2023-05-22T19:04:55.480Z,51.61
2023-05-22T19:07:22.871Z,51.82
2023-05-22T19:09:51.482Z,51.86
2023-05-22T19:12:18.822Z,51.95
2023-05-22T19:14:48.436Z,52.01
2023-05-22T19:17:16.110Z,52.45
2023-05-22T19:19:43.252Z,52.43
2023-05-22T19:22:10.700Z,52.49
2023-05-22T19:24:38.164Z,52.66
2023-05-22T19:27:07.051Z,52.21
2023-05-22T19:29:33.883Z,52.17
2023-05-22T19:32:01.944Z,52.46
2023-05-22T19:34:29.029Z,52.64
2023-05-22T19:36:57.855Z,53.13
2023-05-22T19:39:24.834Z,53.13
2023-05-22T19:41:52.734Z,53.47
2023-05-22T19:44:21.433Z,53.56
2023-05-22T19:46:49.063Z,53.74
2023-05-22T19:49:16.362Z,54.15
2023-05-22T19:51:43.739Z,54.50
2023-05-22T19:54:11.102Z,54.79
2023-05-22T19:56:38.496Z,55.19
2023-05-22T19:59:05.562Z,55.41
2023-05-22T20:01:34.250Z,55.61
2023-05-22T20:04:01.318Z,55.53
2023-05-22T20:06:31.577Z,55.82
2023-05-22T20:08:58.713Z,55.82
2023-05-22T20:11:28.337Z,55.90
2023-05-22T20:13:55.535Z,55.66
2023-05-22T20:16:27.624Z,55.66
2023-05-22T20:18:57.656Z,55.96
2023-05-22T20:21:25.028Z,55.96
2023-05-22T20:23:52.931Z,56.01
2023-05-22T20:26:20.628Z,55.84
2023-05-22T20:28:47.765Z,55.92
2023-05-22T20:31:15.196Z,55.92
2023-05-22T20:33:42.356Z,56.63
2023-05-22T20:36:12.082Z,56.49
2023-05-22T20:38:42.523Z,56.88
2023-05-22T20:41:12.901Z,56.87
2023-05-22T20:43:43.400Z,56.93
2023-05-22T20:46:11.012Z,57.01
2023-05-22T20:48:38.483Z,57.13
2023-05-22T20:51:05.940Z,57.56
2023-05-22T20:53:34.394Z,57.49
2023-05-22T20:56:01.848Z,57.31
2023-05-22T20:58:31.562Z,57.30
2023-05-22T21:00:59.071Z,57.37
2023-05-22T21:03:26.347Z,57.61
2023-05-22T21:05:53.911Z,57.77
2023-05-22T21:08:21.213Z,57.97
2023-05-22T21:10:49.954Z,57.89
2023-05-22T21:13:19.989Z,58.00
2023-05-22T21:15:50.835Z,58.05
2023-05-22T21:18:19.768Z,58.02
2023-05-22T21:20:47.445Z,58.25
2023-05-22T21:23:14.931Z,58.87
2023-05-22T21:25:42.454Z,58.74
2023-05-22T21:28:11.005Z,58.65
2023-05-22T21:30:38.952Z,58.53
2023-05-22T21:33:06.220Z,58.64
2023-05-22T21:35:33.819Z,58.87
2023-05-22T21:38:01.424Z,59.04
2023-05-22T21:40:31.859Z,59.89
2023-05-22T21:43:01.610Z,59.92
2023-05-22T21:45:31.220Z,59.91
2023-05-22T21:47:58.383Z,60.16
2023-05-22T21:50:26.005Z,60.17
2023-05-22T21:52:56.100Z,60.07
2023-05-22T21:55:23.529Z,60.26
2023-05-22T21:57:50.937Z,60.58
2023-05-22T22:00:18.980Z,60.48
2023-05-22T22:02:47.578Z,60.33
2023-05-22T22:05:15.084Z,60.56
2023-05-22T22:07:42.240Z,60.47
2023-05-22T22:10:10.030Z,60.32
2023-05-22T22:12:37.212Z,60.62
2023-05-22T22:15:05.047Z,60.88
2023-05-22T22:17:34.791Z,60.87
2023-05-22T22:20:05.218Z,60.65
2023-05-22T22:22:32.536Z,60.34
2023-05-22T22:25:00.151Z,60.45
2023-05-22T22:27:27.168Z,60.30
2023-05-22T22:29:54.563Z,60.05
2023-05-22T22:32:21.550Z,60.22
2023-05-22T22:34:53.870Z,60.14
2023-05-22T22:37:22.551Z,60.33
2023-05-22T22:39:50.300Z,60.49
2023-05-22T22:42:17.831Z,60.72
2023-05-22T22:44:45.617Z,60.36
2023-05-22T22:47:12.594Z,60.35
2023-05-22T22:49:40.322Z,60.51
2023-05-22T22:52:07.643Z,60.57
2023-05-22T22:54:36.586Z,60.41
2023-05-22T22:57:04.142Z,60.53
2023-05-22T22:59:32.094Z,60.44
2023-05-22T23:01:59.140Z,60.31
2023-05-22T23:04:28.329Z,60.73
2023-05-22T23:06:57.592Z,61.10
2023-05-22T23:09:24.853Z,61.48
2023-05-22T23:11:53.797Z,61.39
2023-05-22T23:14:21.091Z,61.53
2023-05-22T23:16:48.100Z,61.74
2023-05-22T23:19:15.384Z,61.61
2023-05-22T23:21:42.461Z,61.72
2023-05-22T23:26:54.006Z,62.07
2023-05-22T23:29:21.493Z,62.55
2023-05-22T23:31:50.482Z,62.69
2023-05-22T23:34:18.678Z,62.42
2023-05-22T23:36:45.696Z,62.30
2023-05-22T23:39:13.645Z,62.34
2023-05-22T23:41:42.275Z,61.85
2023-05-22T23:44:12.054Z,61.91
2023-05-22T23:46:39.853Z,61.97
2023-05-22T23:49:07.845Z,62.01
2023-05-22T23:51:34.893Z,61.87
2023-05-22T23:54:02.777Z,61.78
2023-05-22T23:56:29.858Z,61.98
2023-05-22T23:58:57.155Z,62.11
